createdAt,value
2018-10-06T00:02:15.763Z,99.90
2018-10-06T00:04:43.483Z,99.90
2018-10-06T00:07:11.234Z,99.90
2018-10-06T00:09:38.989Z,99.90
2018-10-06T00:12:06.845Z,99.90
2018-10-06T00:14:35.229Z,99.90
2018-10-06T00:17:03.017Z,99.90
2018-10-06T00:19:30.754Z,99.90
2018-10-06T00:21:58.480Z,99.90
2018-10-06T00:24:26.275Z,99.90
2018-10-06T00:26:54.034Z,99.90
2018-10-06T00:29:21.842Z,99.90
2018-10-06T00:31:49.605Z,99.90
2018-10-06T00:34:17.354Z,99.90
2018-10-06T00:36:45.806Z,99.90
2018-10-06T00:39:13.553Z,99.90
2018-10-06T00:41:41.261Z,99.90
2018-10-06T00:44:09.029Z,99.90
2018-10-06T00:46:36.785Z,99.90
2018-10-06T00:49:04.570Z,99.90
2018-10-06T00:51:32.285Z,99.90
2018-10-06T00:54:00.041Z,99.90
2018-10-06T00:56:27.789Z,99.90
2018-10-06T00:58:55.540Z,99.90
2018-10-06T01:01:23.257Z,99.90
2018-10-06T01:03:51.124Z,99.90
2018-10-06T01:06:19.154Z,99.90
2018-10-06T01:08:46.897Z,99.90
2018-10-06T01:11:14.765Z,99.90
2018-10-06T01:13:42.482Z,99.90
2018-10-06T01:16:10.290Z,99.90
2018-10-06T01:18:38.529Z,99.90
2018-10-06T01:21:06.705Z,99.90
2018-10-06T01:23:34.633Z,99.90
2018-10-06T01:26:02.385Z,99.90
2018-10-06T01:28:30.097Z,99.90
2018-10-06T01:30:58.018Z,99.90
2018-10-06T01:33:25.787Z,99.90
2018-10-06T01:35:53.509Z,99.90
2018-10-06T01:38:21.254Z,99.90
2018-10-06T01:40:48.971Z,99.90
2018-10-06T01:43:16.733Z,99.90
2018-10-06T01:45:44.521Z,99.90
2018-10-06T01:48:12.318Z,99.90
2018-10-06T01:50:40.101Z,99.90
2018-10-06T01:53:07.897Z,99.90
2018-10-06T01:55:35.621Z,99.90
2018-10-06T01:58:03.414Z,99.90
2018-10-06T02:00:31.154Z,99.90
2018-10-06T02:02:58.925Z,99.90
2018-10-06T02:05:26.685Z,99.90
2018-10-06T02:07:54.457Z,99.90
2018-10-06T02:10:22.186Z,99.90
2018-10-06T02:12:49.934Z,99.90
2018-10-06T02:15:17.673Z,99.90
2018-10-06T02:17:45.579Z,99.90
2018-10-06T02:20:13.328Z,99.90
2018-10-06T02:22:41.073Z,99.90
2018-10-06T02:25:08.781Z,99.90
2018-10-06T02:27:36.780Z,99.90
2018-10-06T02:30:04.674Z,99.90
2018-10-06T02:32:32.330Z,99.90
2018-10-06T02:35:00.094Z,99.90
2018-10-06T02:37:28.269Z,99.90
2018-10-06T02:39:56.027Z,99.90
2018-10-06T02:42:23.966Z,99.90
2018-10-06T02:44:52.197Z,99.90
2018-10-06T02:47:19.913Z,99.90
2018-10-06T02:49:47.682Z,99.90
2018-10-06T02:52:15.425Z,99.90
2018-10-06T02:54:43.213Z,99.90
2018-10-06T02:57:11.409Z,99.90
2018-10-06T02:59:39.158Z,99.90
2018-10-06T03:02:07.333Z,99.90
2018-10-06T03:04:35.118Z,99.90
2018-10-06T03:07:02.882Z,99.90
2018-10-06T03:09:30.632Z,99.90
2018-10-06T03:11:58.353Z,99.90
2018-10-06T03:14:26.108Z,99.90
2018-10-06T03:16:53.881Z,99.90
2018-10-06T03:19:21.605Z,99.90
2018-10-06T03:21:49.402Z,99.90
2018-10-06T03:24:18.567Z,99.90
2018-10-06T03:26:50.413Z,99.90
2018-10-06T03:29:18.285Z,99.90
2018-10-06T03:31:46.065Z,99.90
2018-10-06T03:34:13.814Z,99.90
2018-10-06T03:36:41.971Z,99.90
2018-10-06T03:39:09.686Z,99.90
2018-10-06T03:41:37.457Z,99.90
2018-10-06T03:44:05.186Z,99.90
2018-10-06T03:46:32.937Z,99.90
2018-10-06T03:49:00.637Z,99.90
2018-10-06T03:51:28.434Z,99.90
2018-10-06T03:53:56.803Z,99.90
2018-10-06T03:56:25.242Z,99.90
2018-10-06T03:58:53.077Z,99.90
2018-10-06T04:01:20.845Z,99.90
2018-10-06T04:03:49.087Z,99.90
2018-10-06T04:06:17.571Z,99.90
2018-10-06T04:08:46.228Z,99.90
2018-10-06T04:11:14.634Z,99.90
2018-10-06T04:13:42.389Z,99.90
2018-10-06T04:16:10.681Z,99.90
2018-10-06T04:18:39.256Z,99.90
2018-10-06T04:21:07.894Z,99.90
2018-10-06T04:23:36.697Z,99.90
2018-10-06T04:26:05.145Z,99.90
2018-10-06T04:28:33.950Z,99.90
2018-10-06T04:31:02.323Z,99.90
2018-10-06T04:33:30.093Z,99.90
2018-10-06T04:35:57.814Z,99.90
2018-10-06T04:38:25.559Z,99.90
2018-10-06T04:40:53.268Z,99.90
2018-10-06T04:43:21.007Z,99.90
2018-10-06T04:45:48.726Z,99.90
2018-10-06T04:48:16.493Z,99.90
2018-10-06T04:50:44.717Z,99.90
2018-10-06T04:53:13.131Z,99.90
2018-10-06T04:55:41.648Z,99.90
2018-10-06T04:58:10.190Z,99.90
2018-10-06T05:00:38.545Z,99.90
2018-10-06T05:03:07.192Z,99.90
2018-10-06T05:05:35.714Z,99.90
2018-10-06T05:08:03.445Z,99.90
2018-10-06T05:10:31.710Z,99.90
2018-10-06T05:12:59.420Z,99.90
2018-10-06T05:15:27.759Z,99.90
2018-10-06T05:17:55.497Z,99.90
2018-10-06T05:20:23.405Z,99.90
2018-10-06T05:22:51.227Z,99.90
2018-10-06T05:25:18.938Z,99.90
2018-10-06T05:27:46.682Z,99.90
2018-10-06T05:30:15.884Z,99.90
2018-10-06T05:32:44.553Z,99.90
2018-10-06T05:35:12.520Z,99.90
2018-10-06T05:37:40.305Z,99.90
2018-10-06T05:40:08.014Z,99.90
2018-10-06T05:42:35.745Z,99.90
2018-10-06T05:45:03.479Z,99.90
2018-10-06T05:47:31.377Z,99.90
2018-10-06T05:49:59.101Z,99.90
2018-10-06T05:52:26.851Z,99.90
2018-10-06T05:54:54.560Z,99.90
2018-10-06T05:57:22.617Z,99.90
2018-10-06T05:59:51.222Z,99.90
2018-10-06T06:02:19.805Z,99.90
2018-10-06T06:04:48.342Z,99.90
2018-10-06T06:07:16.896Z,99.90
2018-10-06T06:09:45.212Z,99.90
2018-10-06T06:12:13.274Z,99.90
2018-10-06T06:14:41.037Z,99.90
2018-10-06T06:17:08.818Z,99.90
2018-10-06T06:19:36.626Z,99.90
2018-10-06T06:22:04.385Z,99.90
2018-10-06T06:24:32.073Z,99.90
2018-10-06T06:27:01.355Z,99.90
2018-10-06T06:29:29.084Z,99.90
2018-10-06T06:31:56.834Z,99.90
2018-10-06T06:34:25.053Z,99.90
2018-10-06T06:36:52.761Z,99.90
2018-10-06T06:39:20.481Z,99.90
2018-10-06T06:41:48.190Z,99.90
2018-10-06T06:44:16.048Z,99.90
2018-10-06T06:46:43.689Z,99.90
2018-10-06T06:49:11.485Z,99.90
2018-10-06T06:51:39.862Z,99.90
2018-10-06T06:54:07.617Z,99.90
2018-10-06T06:56:35.337Z,99.90
2018-10-06T06:59:03.101Z,99.90
2018-10-06T07:01:30.903Z,99.90
2018-10-06T07:03:58.698Z,99.90
2018-10-06T07:06:26.413Z,99.90
2018-10-06T07:08:54.322Z,99.90
2018-10-06T07:11:22.033Z,99.90
2018-10-06T07:13:49.865Z,98.40
2018-10-06T07:16:17.612Z,92.30
2018-10-06T07:18:45.343Z,89.10
2018-10-06T07:21:13.101Z,87.50
2018-10-06T07:23:40.877Z,83.60
2018-10-06T07:26:08.634Z,90.80
2018-10-06T07:28:36.608Z,93.50
2018-10-06T07:31:04.382Z,93.80
2018-10-06T07:33:32.230Z,94.60
2018-10-06T07:36:01.755Z,94.70
2018-10-06T07:38:29.521Z,95.60
2018-10-06T07:40:57.281Z,95.20
2018-10-06T07:43:25.014Z,95.70
2018-10-06T07:45:52.733Z,95.50
2018-10-06T07:48:20.483Z,95.40
2018-10-06T07:50:48.185Z,95.10
2018-10-06T07:53:16.050Z,95.00
2018-10-06T07:55:43.693Z,95.20
2018-10-06T07:58:11.636Z,94.50
2018-10-06T08:00:39.341Z,94.20
2018-10-06T08:03:07.110Z,93.90
2018-10-06T08:05:34.817Z,93.50
2018-10-06T08:08:02.517Z,94.00
2018-10-06T08:10:30.302Z,93.40
2018-10-06T08:12:58.041Z,93.20
2018-10-06T08:15:25.781Z,93.50
2018-10-06T08:17:53.527Z,93.60
2018-10-06T08:20:21.265Z,93.30
2018-10-06T08:22:49.021Z,93.70
2018-10-06T08:25:16.733Z,92.70
2018-10-06T08:27:47.851Z,92.50
2018-10-06T08:30:15.577Z,92.90
2018-10-06T08:32:43.347Z,93.40
2018-10-06T08:35:11.066Z,93.40
2018-10-06T08:37:38.813Z,94.20
2018-10-06T08:40:07.427Z,94.00
2018-10-06T08:42:35.364Z,94.70
2018-10-06T08:45:03.137Z,94.90
2018-10-06T08:47:30.849Z,95.50
2018-10-06T08:49:58.605Z,95.70
2018-10-06T08:52:26.806Z,95.80
2018-10-06T08:54:54.528Z,94.60
2018-10-06T08:57:22.240Z,95.80
2018-10-06T08:59:49.973Z,95.30
2018-10-06T09:02:17.709Z,95.90
2018-10-06T09:04:45.445Z,95.50
2018-10-06T09:07:13.185Z,96.00
2018-10-06T09:09:40.922Z,96.00
2018-10-06T09:12:08.658Z,96.00
2018-10-06T09:14:36.677Z,96.00
2018-10-06T09:17:04.469Z,96.50
2018-10-06T09:19:32.921Z,96.10
2018-10-06T09:22:00.684Z,96.30
2018-10-06T09:24:28.390Z,96.00
2018-10-06T09:26:56.317Z,96.00
2018-10-06T09:29:24.058Z,95.80
2018-10-06T09:31:53.945Z,96.20
2018-10-06T09:37:35.646Z,95.00
2018-10-06T09:40:03.349Z,95.50
2018-10-06T09:42:31.265Z,95.40
2018-10-06T09:45:01.521Z,95.00
2018-10-06T09:47:33.789Z,94.90
2018-10-06T09:50:01.501Z,94.90
2018-10-06T09:52:29.218Z,93.60
2018-10-06T09:54:56.957Z,93.50
2018-10-06T09:57:24.942Z,93.50
2018-10-06T09:59:52.669Z,93.50
2018-10-06T10:03:27.657Z,93.60
2018-10-06T10:05:55.885Z,93.60
2018-10-06T10:08:23.628Z,93.00
2018-10-06T10:10:51.673Z,93.20
2018-10-06T10:13:19.926Z,93.20
2018-10-06T10:15:47.826Z,92.30
2018-10-06T10:18:15.679Z,92.30
2018-10-06T10:20:43.491Z,91.40
2018-10-06T10:23:11.545Z,86.70
2018-10-06T10:25:39.665Z,81.60
2018-10-06T10:28:07.405Z,85.90
2018-10-06T10:30:35.408Z,85.70
2018-10-06T10:33:03.633Z,87.40
2018-10-06T10:35:31.342Z,89.70
2018-10-06T10:37:59.130Z,87.50
2018-10-06T10:40:27.244Z,88.40
2018-10-06T10:42:54.986Z,87.60
2018-10-06T10:45:22.960Z,87.20
2018-10-06T10:47:50.709Z,87.10
2018-10-06T10:50:18.647Z,85.70
2018-10-06T10:52:46.986Z,85.80
2018-10-06T10:55:16.244Z,85.60
2018-10-06T10:57:44.018Z,84.80
2018-10-06T11:00:11.880Z,84.90
2018-10-06T11:02:40.491Z,84.90
2018-10-06T11:05:08.824Z,83.70
2018-10-06T11:07:37.401Z,83.30
2018-10-06T11:10:06.869Z,83.20
2018-10-06T11:12:40.352Z,81.10
2018-10-06T11:15:09.785Z,75.30
2018-10-06T11:17:39.190Z,73.80
2018-10-06T11:20:07.012Z,73.70
2018-10-06T11:22:35.589Z,74.60
2018-10-06T11:25:03.341Z,77.90
2018-10-06T11:27:31.435Z,78.60
2018-10-06T11:29:59.166Z,78.80
2018-10-06T11:32:26.906Z,79.50
2018-10-06T11:34:54.700Z,79.90
2018-10-06T11:37:23.130Z,82.20
2018-10-06T11:39:50.830Z,81.60
2018-10-06T11:42:18.643Z,81.40
2018-10-06T11:44:46.349Z,80.20
2018-10-06T11:47:14.053Z,80.00
2018-10-06T11:49:41.839Z,81.90
2018-10-06T11:52:09.525Z,79.90
2018-10-06T11:54:37.292Z,81.40
2018-10-06T11:57:05.034Z,79.50
2018-10-06T11:59:32.992Z,81.00
2018-10-06T12:02:00.693Z,80.20
2018-10-06T12:04:28.422Z,78.90
2018-10-06T12:06:56.363Z,79.20
2018-10-06T12:09:24.235Z,79.80
2018-10-06T12:11:51.958Z,79.50
2018-10-06T12:14:19.722Z,79.20
2018-10-06T12:16:47.482Z,78.20
2018-10-06T12:19:15.242Z,78.60
2018-10-06T12:21:42.966Z,77.90
2018-10-06T12:24:10.705Z,77.60
2018-10-06T12:26:39.013Z,77.00
2018-10-06T12:29:06.756Z,77.70
2018-10-06T12:31:34.486Z,76.10
2018-10-06T12:34:02.229Z,75.80
2018-10-06T12:36:30.538Z,74.50
2018-10-06T12:38:58.289Z,75.40
2018-10-06T12:41:26.022Z,76.00
2018-10-06T12:43:53.757Z,75.80
2018-10-06T12:46:21.485Z,74.00
2018-10-06T12:48:49.813Z,74.20
2018-10-06T12:51:17.573Z,73.80
2018-10-06T12:53:45.313Z,75.40
2018-10-06T12:56:13.025Z,74.00
2018-10-06T12:58:40.761Z,73.90
2018-10-06T13:01:08.497Z,74.30
2018-10-06T13:03:37.253Z,76.50
2018-10-06T13:06:06.658Z,75.80
2018-10-06T13:08:34.354Z,74.10
2018-10-06T13:11:02.110Z,72.40
2018-10-06T13:13:29.834Z,74.60
2018-10-06T13:15:57.530Z,75.60
2018-10-06T13:18:25.264Z,75.40
2018-10-06T13:20:52.977Z,74.10
2018-10-06T13:23:20.709Z,75.10
2018-10-06T13:25:48.438Z,75.10
2018-10-06T13:28:16.177Z,74.50
2018-10-06T13:30:43.921Z,75.50
2018-10-06T13:33:11.665Z,75.90
2018-10-06T13:35:40.061Z,75.50
2018-10-06T13:38:08.410Z,74.50
2018-10-06T13:40:36.129Z,73.60
2018-10-06T13:43:03.885Z,74.10
2018-10-06T13:45:32.332Z,73.40
2018-10-06T13:48:00.090Z,73.20
2018-10-06T13:50:27.798Z,72.80
2018-10-06T13:52:55.534Z,73.70
2018-10-06T13:55:23.266Z,72.50
2018-10-06T13:57:51.010Z,73.50
2018-10-06T14:00:18.758Z,72.50
2018-10-06T14:02:46.489Z,73.60
2018-10-06T14:05:14.221Z,73.10
2018-10-06T14:07:41.998Z,72.40
2018-10-06T14:10:09.709Z,72.00
2018-10-06T14:12:37.449Z,72.80
2018-10-06T14:15:05.297Z,73.40
2018-10-06T14:17:33.025Z,73.50
2018-10-06T14:20:00.717Z,73.40
2018-10-06T14:22:28.453Z,73.80
2018-10-06T14:24:56.165Z,73.50
2018-10-06T14:27:23.905Z,72.80
2018-10-06T14:29:51.614Z,74.10
2018-10-06T14:32:19.357Z,74.00
2018-10-06T14:34:47.085Z,75.30
2018-10-06T14:37:14.858Z,75.30
2018-10-06T14:39:42.638Z,75.80
2018-10-06T14:42:10.385Z,75.80
2018-10-06T14:44:38.116Z,76.00
2018-10-06T14:47:06.032Z,76.10
2018-10-06T14:49:33.663Z,76.30
2018-10-06T14:52:01.410Z,76.90
2018-10-06T14:54:29.605Z,76.80
2018-10-06T14:56:57.405Z,77.40
2018-10-06T14:59:25.545Z,77.20
2018-10-06T15:01:53.290Z,77.50
2018-10-06T15:04:21.065Z,78.20
2018-10-06T15:06:48.840Z,78.70
2018-10-06T15:09:16.562Z,78.70
2018-10-06T15:11:44.306Z,79.30
2018-10-06T15:14:12.010Z,79.40
2018-10-06T15:16:39.793Z,79.10
2018-10-06T15:19:07.462Z,78.80
2018-10-06T15:21:35.254Z,79.10
2018-10-06T15:24:02.954Z,79.30
2018-10-06T15:26:30.708Z,78.40
2018-10-06T15:28:58.949Z,78.80
2018-10-06T15:31:26.679Z,78.70
2018-10-06T15:33:54.376Z,79.50
2018-10-06T15:36:22.269Z,77.80
2018-10-06T15:38:50.705Z,77.10
2018-10-06T15:41:18.501Z,76.90
2018-10-06T15:43:46.203Z,76.90
2018-10-06T15:46:13.941Z,77.90
2018-10-06T15:48:42.236Z,77.40
2018-10-06T15:51:10.135Z,77.10
2018-10-06T15:53:37.761Z,78.30
2018-10-06T15:56:05.729Z,78.70
2018-10-06T15:58:34.019Z,77.60
2018-10-06T16:01:01.813Z,77.90
2018-10-06T16:03:29.605Z,78.40
2018-10-06T16:05:57.773Z,80.10
2018-10-06T16:08:25.484Z,82.20
2018-10-06T16:10:53.245Z,82.30
2018-10-06T16:13:20.965Z,84.30
2018-10-06T16:15:48.710Z,85.20
2018-10-06T16:18:16.474Z,84.80
2018-10-06T16:20:44.238Z,86.80
2018-10-06T16:23:11.942Z,89.20
2018-10-06T16:25:39.672Z,90.40
2018-10-06T16:28:07.409Z,91.00
2018-10-06T16:30:35.152Z,90.80
2018-10-06T16:33:02.857Z,91.40
2018-10-06T16:35:30.601Z,92.10
2018-10-06T16:37:58.301Z,92.30
2018-10-06T16:40:26.078Z,92.70
2018-10-06T16:42:53.852Z,93.40
2018-10-06T16:45:21.561Z,94.30
2018-10-06T16:47:49.380Z,95.00
2018-10-06T16:50:17.124Z,95.40
2018-10-06T16:52:45.868Z,96.10
2018-10-06T16:55:15.265Z,96.20
2018-10-06T16:57:44.645Z,96.70
2018-10-06T17:00:13.686Z,97.10
2018-10-06T17:02:43.031Z,97.30
2018-10-06T17:05:12.209Z,97.80
2018-10-06T17:07:40.317Z,98.30
2018-10-06T17:10:10.362Z,98.60
2018-10-06T17:12:38.225Z,98.80
2018-10-06T17:15:06.437Z,98.80
2018-10-06T17:17:34.272Z,99.00
2018-10-06T17:20:02.002Z,99.50
2018-10-06T17:22:29.777Z,99.60
2018-10-06T17:24:58.805Z,99.70
2018-10-06T17:27:26.634Z,99.70
2018-10-06T17:29:57.877Z,99.90
2018-10-06T17:32:26.162Z,99.90
2018-10-06T17:34:55.711Z,99.90
2018-10-06T17:37:25.349Z,99.90
2018-10-06T17:39:53.756Z,99.90
2018-10-06T17:42:22.409Z,99.90
2018-10-06T17:44:50.205Z,99.90
2018-10-06T17:47:17.963Z,99.90
2018-10-06T17:49:45.682Z,99.90
2018-10-06T17:52:13.784Z,99.90
2018-10-06T17:54:43.797Z,99.90
2018-10-06T17:57:12.030Z,99.90
2018-10-06T17:59:40.841Z,99.90
2018-10-06T18:02:10.058Z,99.90
2018-10-06T18:04:39.457Z,99.90
2018-10-06T18:07:07.953Z,99.90
2018-10-06T18:09:37.066Z,99.90
2018-10-06T18:12:05.189Z,99.90
2018-10-06T18:14:32.993Z,99.90
2018-10-06T18:17:00.732Z,99.90
2018-10-06T18:19:28.825Z,99.90
2018-10-06T18:21:58.030Z,99.90
2018-10-06T18:24:28.066Z,99.90
2018-10-06T18:26:57.562Z,99.90
2018-10-06T18:29:26.978Z,99.90
2018-10-06T18:31:56.277Z,99.90
2018-10-06T18:34:25.195Z,99.90
2018-10-06T18:36:54.398Z,99.90
2018-10-06T18:39:23.703Z,99.90
2018-10-06T18:41:52.375Z,99.90
2018-10-06T18:44:20.487Z,99.90
2018-10-06T18:46:49.280Z,99.90
2018-10-06T18:49:17.470Z,99.90
2018-10-06T18:51:45.310Z,99.90
2018-10-06T18:54:13.058Z,99.90
2018-10-06T18:56:41.822Z,99.90
2018-10-06T18:59:10.362Z,99.90
2018-10-06T19:01:38.081Z,99.90
2018-10-06T19:04:06.071Z,99.90
2018-10-06T19:06:34.103Z,99.90
2018-10-06T19:09:02.018Z,99.90
2018-10-06T19:11:29.868Z,99.90
2018-10-06T19:13:58.365Z,99.90
2018-10-06T19:16:26.998Z,99.90
2018-10-06T19:18:55.686Z,99.90
2018-10-06T19:21:25.133Z,99.90
2018-10-06T19:23:54.357Z,99.90
2018-10-06T19:26:23.731Z,99.90
2018-10-06T19:28:53.494Z,99.90
2018-10-06T19:31:22.666Z,99.90
2018-10-06T19:33:50.445Z,99.90
2018-10-06T19:36:19.857Z,99.90
2018-10-06T19:38:49.237Z,99.90
2018-10-06T19:41:18.689Z,99.90
2018-10-06T19:43:47.636Z,99.90
2018-10-06T19:46:16.647Z,99.90
2018-10-06T19:48:45.671Z,99.90
2018-10-06T19:51:15.508Z,99.90
2018-10-06T19:53:44.568Z,99.90
2018-10-06T19:56:14.042Z,99.90
2018-10-06T19:58:43.542Z,99.90
2018-10-06T20:01:12.628Z,99.90
2018-10-06T20:03:41.802Z,99.90
2018-10-06T20:06:11.360Z,99.90
2018-10-06T20:08:39.578Z,99.90
2018-10-06T20:11:09.021Z,99.90
2018-10-06T20:13:39.328Z,99.90
2018-10-06T20:16:08.637Z,99.90
2018-10-06T20:18:37.893Z,99.90
2018-10-06T20:21:06.889Z,99.90
2018-10-06T20:23:36.073Z,99.90
2018-10-06T20:26:05.326Z,99.90
2018-10-06T20:28:34.749Z,99.90
2018-10-06T20:31:03.869Z,99.90
2018-10-06T20:33:33.767Z,99.90
2018-10-06T20:36:03.955Z,99.90
2018-10-06T20:38:32.454Z,99.90
2018-10-06T20:41:01.325Z,99.90
2018-10-06T20:43:30.833Z,99.90
2018-10-06T20:45:59.787Z,99.90
2018-10-06T20:48:30.072Z,99.90
2018-10-06T20:51:00.328Z,99.90
2018-10-06T20:53:28.853Z,99.90
2018-10-06T20:55:59.022Z,99.90
2018-10-06T20:58:29.459Z,99.90
2018-10-06T21:00:58.677Z,99.90
2018-10-06T21:03:26.470Z,99.90
2018-10-06T21:05:54.194Z,99.90
2018-10-06T21:08:21.934Z,99.90
2018-10-06T21:10:49.689Z,99.90
2018-10-06T21:13:17.430Z,99.90
2018-10-06T21:15:45.197Z,99.90
2018-10-06T21:18:12.969Z,99.90
2018-10-06T21:20:40.767Z,99.90
2018-10-06T21:23:08.526Z,99.90
2018-10-06T21:25:36.234Z,99.90
2018-10-06T21:28:03.945Z,99.90
2018-10-06T21:30:31.685Z,99.90
2018-10-06T21:32:59.398Z,99.90
2018-10-06T21:35:27.125Z,99.90
2018-10-06T21:37:54.832Z,99.90
2018-10-06T21:40:22.596Z,99.90
2018-10-06T21:42:50.325Z,99.90
2018-10-06T21:45:18.085Z,99.90
2018-10-06T21:47:46.165Z,99.90
2018-10-06T21:50:13.934Z,99.90
2018-10-06T21:52:41.641Z,99.90
2018-10-06T21:55:09.369Z,99.90
2018-10-06T21:57:37.101Z,99.90
2018-10-06T22:00:05.266Z,99.90
2018-10-06T22:02:33.021Z,99.90
2018-10-06T22:05:00.725Z,99.90
2018-10-06T22:07:28.469Z,99.90
2018-10-06T22:09:56.358Z,99.90
2018-10-06T22:12:24.111Z,99.90
2018-10-06T22:14:51.817Z,99.90
2018-10-06T22:17:19.622Z,99.90
2018-10-06T22:19:47.346Z,99.90
2018-10-06T22:22:15.105Z,99.90
2018-10-06T22:24:42.857Z,99.90
2018-10-06T22:27:10.614Z,99.90
2018-10-06T22:29:38.366Z,99.90
2018-10-06T22:32:06.114Z,99.90
2018-10-06T22:34:33.817Z,99.90
2018-10-06T22:37:01.710Z,99.90
2018-10-06T22:39:29.472Z,99.90
2018-10-06T22:41:57.161Z,99.90
2018-10-06T22:44:25.605Z,99.90
2018-10-06T22:46:53.314Z,99.90
2018-10-06T22:49:21.050Z,99.90
2018-10-06T22:51:48.777Z,99.90
2018-10-06T22:54:16.515Z,99.90
2018-10-06T22:56:44.516Z,99.90
2018-10-06T22:59:12.297Z,99.90
2018-10-06T23:01:40.004Z,99.90
2018-10-06T23:04:07.732Z,99.90
2018-10-06T23:06:35.430Z,99.90
2018-10-06T23:09:04.063Z,99.90
2018-10-06T23:11:32.493Z,99.90
2018-10-06T23:14:00.281Z,99.90
2018-10-06T23:16:28.005Z,99.90
2018-10-06T23:18:56.661Z,99.90
2018-10-06T23:21:24.413Z,99.90
2018-10-06T23:23:52.165Z,99.90
2018-10-06T23:26:19.913Z,99.90
2018-10-06T23:28:47.622Z,99.90
2018-10-06T23:31:15.362Z,99.90
2018-10-06T23:33:43.111Z,99.90
2018-10-06T23:36:10.900Z,99.90
2018-10-06T23:38:38.649Z,99.90
2018-10-06T23:41:07.102Z,99.90
2018-10-06T23:43:34.857Z,99.90
2018-10-06T23:46:02.566Z,99.90
2018-10-06T23:48:30.284Z,99.90
2018-10-06T23:50:58.074Z,99.90
2018-10-06T23:53:25.809Z,99.90
2018-10-06T23:55:53.578Z,99.90
2018-10-06T23:58:21.285Z,99.90
